Niagara Falls International Airport Niagara Falls US
ICAO: KIAG
IATA: IAG
Category: Medium
Scheduled Services: No

Elevation: 589 ft
TransAlt. 18000 ft.

Airport Communications:
BUFFALO APP/DEP:126.5
ATIS:120.8
CLNC DEL:119.25
CTAF:118.5
GND:121.7
ANG OPS:26.19
914 AW COMD POST:34.002
PTD:37.22
TWR:118.5
UNICOM:122.95

KIAG Zoom In..

If Map Doesn't Load, Click Here

Runways:

(A) RW 06 length 5188 ft width 150 ft
---- / hdg 60

(B) RW 10L length 9829 ft width 150 ft
---- / hdg 100

(C) RW 10R length 3973 ft width 75 ft
---- / hdg 100

(D) RW 24 length 5188 ft width 150 ft
---- / hdg 240

(E) RW 28L length 3973 ft width 75 ft
---- / hdg 280

(F) RW 28R length 9829 ft width 150 ft
ILS 110.10 / hdg 280

Location; KIAG
Day. 21 / Time. 14.53 Zulu
* Altimeter: 29.85
* Temperature: 27° c. 80.6°f.
* Wind from: 210° Speed 19 kn with Gusts up to 29 kn.
Dewpoint: 21° c.
Visibility: 10 Statute Miles.
Clouds: Clear (automated report).

KIAG 211453Z 21019G29KT 10SM CLR 27/21 A2985 RMK AO2 PK WND 21029/1447 RAE13 SLP105 P0000 60003 T02670206 58015


Wind From 210°
Speed 19 kn.

 
 
jpsmedia.com for Web Design worldairports.se 2018   terms of use